Flight Track Log - Related Links

Times and Time Zones

All times are in EDT time to prevent confusion due to time zone crossing. See the UAL5915 flight status page for this flight to view local times or setup timezone preferences in your user account.

Time Position Orientation Groundspeed Altitude Reporting Facility
EDT Latitude Longitude Course Direction KTS MPH feet Rate Location/Type
Wed 05:16:46 PM 38.1500 -85.7167 345° North 176 203 1,700  Level Louisville TRACON
Wed 05:18:27 PM 38.0725 -85.7472 197° South 272 313 5,000 1,914 Climbing Indianapolis Center
Wed 05:19:29 PM 38.1019 -85.8211 297° West 228 262 6,900 1,935 Climbing Indianapolis Center
Wed 05:20:31 PM 38.1939 -85.8475 347° North 284 327 9,000 2,177 Climbing Indianapolis Center
Wed 05:21:33 PM 38.2711 -85.8708 347° North 286 329 11,400 2,129 Climbing Indianapolis Center
Wed 05:22:00 PM 38.2810 -85.9715 345° North  Level FlightAware Approximate
Wed 05:22:35 PM 38.3536 -85.8944 347° North 300 345 13,400  Level Indianapolis Center
Wed 05:23:37 PM 38.4475 -85.9214 347° North 334 384 14,000 774 Climbing Indianapolis Center
Wed 05:24:39 PM 38.5550 -85.9422 351° North 377 434 15,000 968 Climbing Indianapolis Center
Wed 05:25:41 PM 38.6664 -85.9269 North 400 460 16,000 1,306 Climbing Indianapolis Center
Wed 05:26:43 PM 38.8025 -85.9094 North 408 470 17,700 1,344 Climbing Indianapolis Center
Wed 05:27:46 PM 38.9156 -85.8958 North 409 471 18,800 1,056 Climbing Indianapolis Center
Wed 05:28:48 PM 39.0311 -85.8789 North 414 476 19,900 1,016 Climbing Indianapolis Center
Wed 05:29:50 PM 39.1494 -85.8625 North 423 487 20,900 532 Climbing Indianapolis Center
Wed 05:30:52 PM 39.2703 -85.8464 North 433 498 21,000 194 Climbing Indianapolis Center
Wed 05:31:54 PM 39.3917 -85.8306 North 436 502 21,300 484 Climbing Indianapolis Center
Wed 05:32:56 PM 39.5306 -85.8114 North 431 496 22,000 339 Climbing Indianapolis Center
Wed 05:33:58 PM 39.6550 -85.7953 North 444 511 22,000  Level Indianapolis Center
Wed 05:35:00 PM 39.7806 -85.7772 North 453 521 22,000  Level Indianapolis Center
Wed 05:36:02 PM 39.8989 -85.8244 343° North 453 521 22,000  Level Indianapolis Center
Wed 05:37:04 PM 40.0153 -85.8883 337° Northwest 453 521 22,000  Level Indianapolis Center
Wed 05:38:06 PM 40.1517 -85.9644 337° Northwest 457 526 22,000  Level Indianapolis Center
Wed 05:38:54 PM 40.2286 -86.0078 337° Northwest 455 524 22,000  Level Chicago Center
Wed 05:39:56 PM 40.3478 -86.1217 324° Northwest 452 520 22,000  Level Chicago Center
Wed 05:40:58 PM 40.4458 -86.2239 322° Northwest 449 517 22,000  Level Chicago Center
Wed 05:42:00 PM 40.5447 -86.3264 322° Northwest 451 519 22,000  Level Chicago Center
Wed 05:43:02 PM 40.6433 -86.4283 322° Northwest 450 518 22,000  Level Chicago Center
Wed 05:44:04 PM 40.7392 -86.5311 321° Northwest 453 521 22,000  Level Chicago Center
Wed 05:45:06 PM 40.8389 -86.6339 322° Northwest 454 522 22,000  Level Chicago Center
Wed 05:46:08 PM 40.9472 -86.7478 322° Northwest 459 528 22,000 -435 Level Chicago Center
Wed 05:47:10 PM 41.0628 -86.8681 322° Northwest 445 512 21,100 -1,452 Descending Chicago Center
Wed 05:48:12 PM 41.1525 -86.9644 321° Northwest 422 486 19,000 -2,304 Descending Chicago Center
Wed 05:49:15 PM 41.2392 -87.0583 321° Northwest 407 468 16,300 -2,784 Descending Chicago Center
Wed 05:50:17 PM 41.3239 -87.1506 321° Northwest 400 460 13,200 -2,447 Descending Chicago Center
Wed 05:50:58 PM 41.3833 -87.2167 320° Northwest 380 437 12,100 -1,248 Descending Chicago TRACON
Wed 05:51:58 PM 41.4667 -87.3167 318° Northwest 390 449 11,100 -574 Descending Chicago TRACON
Wed 05:52:53 PM 41.5500 -87.3833 329° Northwest 392 451 11,000 -141 Descending Chicago TRACON
Wed 05:53:23 PM 41.5953 -87.4203 329° Northwest 391 450 10,900 -65 Descending Chicago Center
Wed 05:54:25 PM 41.6828 -87.5058 324° Northwest 394 453 10,900  Level Chicago Center
Wed 05:55:27 PM 41.7661 -87.5964 321° Northwest 393 452 10,900 -341 Level Chicago Center
Wed 05:55:53 PM 41.8167 -87.6333 331° Northwest 356 410 10,400 -977 Descending Chicago TRACON
Wed 05:56:53 PM 41.8833 -87.6833 331° Northwest 320 368 9,500 -1,200 Descending Chicago TRACON
Wed 05:57:53 PM 41.9667 -87.6833 360° North 297 342 8,000 -1,947 Descending Chicago TRACON
Wed 05:58:47 PM 42.0333 -87.6833 360° North 277 319 5,800 -2,105 Descending Chicago TRACON
Wed 05:59:47 PM 42.0833 -87.7500 315° West 256 295 4,000 -1,400 Descending Chicago TRACON
Wed 06:00:47 PM 42.0667 -87.8167 251° West 209 241 3,000 -1,100 Descending Chicago TRACON
Wed 06:01:47 PM 42.0333 -87.8500 217° Southwest 154 177 1,800 -33 Descending Chicago TRACON
Wed 06:03:48 PM 41.9667 -87.8667 191° South 231 266 2,900 762 Climbing Chicago TRACON
Wed 06:04:48 PM 41.9667 -87.7833 90° East 258 297 4,100 550 Climbing Chicago TRACON
Wed 06:05:48 PM 42.0000 -87.7000 62° Northeast 233 268 4,000 -50 Descending Chicago TRACON
Wed 06:06:48 PM 42.0500 -87.6667 26° Northeast 216 249 4,000 50 Level Chicago TRACON
Wed 06:07:48 PM 42.1000 -87.6667 360° North 223 257 4,100 -331 Climbing Chicago TRACON
Wed 06:08:55 PM 42.1350 -87.7428 302° West 222 255 3,300 -550 Descending Chicago Center
Wed 06:09:48 PM 42.1000 -87.7833 221° Southwest 178 205 3,000 -584 Descending Chicago TRACON
Wed 06:10:48 PM 42.0667 -87.8333 228° Southwest 186 214 2,200 -800 Descending Chicago TRACON
Wed 06:11:48 PM 42.0333 -87.8667 217° Southwest 159 183 1,400 -800 Descending Chicago TRACON
Wed 06:14:00 PM 41.9817 -87.9067 246° West  Level Estimated

Login

Don't have an account? Register now (free) for customized features, flight alerts, and more!